Portada
METAR-TAF:

METAR-TAF

Aeroports :

Guwahati, Índia

latitud: 26-06-22N, longitud: 091-35-09E, altitud: 49 m

Observació

L'informe es va fer fa 56 minuts, a les 20:00 UTC
Vent 4 kt del Nord
Temperatura 22°C
Humitat 73%
Pressió 1008 hPa
Visibilitat: 3000 m
Escasses núvols a una alçada de 2000 ft
Núvols disperses a una alçada de 10000 ft
calitja

METAR: VEGT 072000Z 01004KT 3000 HZ FEW020 SCT100 22/17 Q1008 NOSIG

Hora: 02:26 (20:56 UTC)

Pronòstic

L'informe es va fer fa 56 minuts, a les 20:00 UTC
Pronòstic vàlid del 07 a les 21 UTC al 08 a les 06 UTC
Vent 4 kt del Nord-Est
Visibilitat: 3000 m
Escasses núvols a una alçada de 1800 ft
Núvols disperses a una alçada de 10000 ft
boirina
Evolucionant progressivament
l' 08 a les 02 UTC al 08 a les 04 UTC
Vent 8 kt del Est/Nord-Est
Visibilitat: 5000 m
Núvols disperses a una alçada de 1800 ft
Cel ennuvolat a una alçada de 10000 ft
calitja

TAF: VEGT 072000Z 0721/0806 05004KT 3000 BR FEW018 SCT100 BECMG 0802/0804 06008KT 5000 HZ SCT018 BKN100

Observacions i pronòstics meteorològics de més de 4000 aeroports (METAR i TAF).

Les estacions disponibles són els punts grocs i vermells al mapa.

Posi el ratolí al punt desitjat per veure el nom de l'estació.

Feu clic per veure les observacions i els pronòstics meteorològics.

Per canviar el mapa: feu clic els botons verds amb una creu de color negre per apropar; al botó verd amb un guió per allunyar la imatge; o en les fletxes verdes per a mapes adjacents.


METAR-TAF: